createdAt,value
2019-03-15T00:01:19.566Z,4.64
2019-03-15T00:03:51.856Z,4.68
2019-03-15T00:06:23.485Z,4.68
2019-03-15T00:08:55.048Z,4.70
2019-03-15T00:11:29.433Z,4.75
2019-03-15T00:14:01.115Z,4.77
2019-03-15T00:16:32.773Z,4.82
2019-03-15T00:19:04.435Z,4.78
2019-03-15T00:21:36.897Z,4.84
2019-03-15T00:24:08.683Z,4.81
2019-03-15T00:26:40.726Z,4.75
2019-03-15T00:29:12.460Z,4.83
2019-03-15T00:31:45.283Z,4.92
2019-03-15T00:34:17.027Z,4.96
2019-03-15T00:36:48.613Z,5.02
2019-03-15T00:39:20.283Z,5.03
2019-03-15T00:41:51.831Z,5.01
2019-03-15T00:44:23.449Z,5.02
2019-03-15T00:46:56.821Z,5.05
2019-03-15T00:49:28.408Z,5.03
2019-03-15T00:52:00.080Z,5.01
2019-03-15T00:54:32.105Z,5.03
2019-03-15T00:57:03.722Z,5.06
2019-03-15T00:59:35.965Z,5.03
2019-03-15T01:02:09.450Z,5.10
2019-03-15T01:04:41.697Z,5.13
2019-03-15T01:07:14.466Z,5.12
2019-03-15T01:09:46.365Z,5.13
2019-03-15T01:12:18.059Z,5.07
2019-03-15T01:14:52.943Z,4.98
2019-03-15T01:17:24.558Z,5.01
2019-03-15T01:20:00.047Z,5.02
2019-03-15T01:22:32.949Z,5.02
2019-03-15T01:25:07.162Z,5.03
2019-03-15T01:27:40.598Z,5.06
2019-03-15T01:30:15.831Z,5.08
2019-03-15T01:32:49.005Z,5.06
2019-03-15T01:35:21.154Z,4.93
2019-03-15T01:37:52.938Z,4.96
2019-03-15T01:40:25.997Z,4.99
2019-03-15T01:43:01.786Z,4.99
2019-03-15T01:45:32.537Z,4.98
2019-03-15T01:48:04.718Z,4.96
2019-03-15T01:50:37.092Z,4.97
2019-03-15T01:53:08.737Z,4.97
2019-03-15T01:55:41.403Z,4.94
2019-03-15T01:58:15.189Z,4.87
2019-03-15T02:00:46.823Z,4.85
2019-03-15T02:03:19.089Z,4.88
2019-03-15T02:05:51.782Z,4.86
2019-03-15T02:08:23.589Z,4.81
2019-03-15T02:10:56.617Z,4.66
2019-03-15T02:13:29.787Z,4.68
2019-03-15T02:16:04.250Z,4.61
2019-03-15T02:18:35.951Z,4.59
2019-03-15T02:21:07.555Z,4.59
2019-03-15T02:23:39.230Z,4.65
2019-03-15T02:26:10.916Z,4.64
2019-03-15T02:28:44.149Z,4.66
2019-03-15T02:31:18.165Z,4.70
2019-03-15T02:33:50.375Z,4.68
2019-03-15T02:36:22.025Z,4.67
2019-03-15T02:38:54.317Z,4.68
2019-03-15T02:41:25.884Z,4.69
2019-03-15T02:43:57.455Z,4.69
2019-03-15T02:46:30.489Z,4.68
2019-03-15T02:49:04.637Z,4.66
2019-03-15T02:51:36.364Z,4.67
2019-03-15T02:54:13.961Z,4.66
2019-03-15T02:56:46.163Z,4.57
2019-03-15T02:59:19.060Z,4.55
2019-03-15T03:01:51.124Z,4.54
2019-03-15T03:04:22.807Z,4.57
2019-03-15T03:06:54.852Z,4.51
2019-03-15T03:09:26.814Z,4.54
2019-03-15T03:11:58.455Z,4.54
2019-03-15T03:14:30.977Z,4.51
2019-03-15T03:17:03.290Z,4.48
2019-03-15T03:19:34.876Z,4.37
2019-03-15T03:22:06.582Z,4.45
2019-03-15T03:24:39.769Z,4.43
2019-03-15T03:27:13.801Z,4.40
2019-03-15T03:29:46.888Z,4.41
2019-03-15T03:32:18.877Z,4.28
2019-03-15T03:34:52.726Z,4.26
2019-03-15T03:37:27.012Z,4.26
2019-03-15T03:39:58.622Z,4.25
2019-03-15T03:42:32.134Z,4.23
2019-03-15T03:45:06.534Z,4.19
2019-03-15T03:47:38.216Z,4.19
2019-03-15T03:50:11.059Z,4.26
2019-03-15T03:52:42.058Z,4.30
2019-03-15T03:55:14.579Z,4.29
2019-03-15T03:57:50.253Z,4.27
2019-03-15T04:00:21.854Z,4.27
2019-03-15T04:02:54.238Z,4.21
2019-03-15T04:05:25.760Z,4.30
2019-03-15T04:07:57.435Z,4.32
2019-03-15T04:10:29.916Z,4.32
2019-03-15T04:13:06.050Z,4.36
2019-03-15T04:15:38.881Z,4.40
2019-03-15T04:18:12.682Z,4.43
2019-03-15T04:20:48.122Z,4.36
2019-03-15T04:23:20.443Z,4.38
2019-03-15T04:25:53.403Z,4.46
2019-03-15T04:28:25.426Z,4.49
2019-03-15T04:30:59.152Z,4.54
2019-03-15T04:33:32.711Z,4.53
2019-03-15T04:36:06.664Z,4.49
2019-03-15T04:38:38.755Z,4.45
2019-03-15T04:41:11.212Z,4.45
2019-03-15T04:43:43.172Z,4.27
2019-03-15T04:46:15.155Z,4.28
2019-03-15T04:48:48.000Z,4.30
2019-03-15T04:51:22.125Z,4.36
2019-03-15T04:53:54.701Z,4.22
2019-03-15T04:56:26.486Z,4.18
2019-03-15T04:58:58.489Z,4.22
2019-03-15T05:01:30.510Z,4.21
2019-03-15T05:04:03.861Z,4.25
2019-03-15T05:06:37.073Z,4.35
2019-03-15T05:09:10.089Z,4.25
2019-03-15T05:11:43.958Z,4.30
2019-03-15T05:14:16.359Z,4.44
2019-03-15T05:16:50.210Z,4.53
2019-03-15T05:19:22.903Z,4.59
2019-03-15T05:21:55.294Z,4.53
2019-03-15T05:24:30.487Z,4.55
2019-03-15T05:27:02.382Z,4.63
2019-03-15T05:29:34.315Z,4.69
2019-03-15T05:32:06.262Z,4.68
2019-03-15T05:34:38.655Z,4.74
2019-03-15T05:37:10.748Z,4.84
2019-03-15T05:39:42.765Z,4.94
2019-03-15T05:42:15.366Z,4.98
2019-03-15T05:44:47.326Z,5.06
2019-03-15T05:47:19.192Z,5.00
2019-03-15T05:49:52.617Z,5.08
2019-03-15T05:52:25.440Z,5.10
2019-03-15T05:54:57.688Z,5.01
2019-03-15T05:57:31.063Z,5.13
2019-03-15T06:00:04.607Z,5.20
2019-03-15T06:02:36.571Z,5.24
2019-03-15T06:05:09.343Z,5.31
2019-03-15T06:07:43.423Z,5.37
2019-03-15T06:10:20.058Z,5.43
2019-03-15T06:12:51.896Z,5.55
2019-03-15T06:15:25.596Z,5.58
2019-03-15T06:17:59.526Z,5.57
2019-03-15T06:20:33.147Z,5.62
2019-03-15T06:23:06.504Z,5.64
2019-03-15T06:25:38.436Z,5.69
2019-03-15T06:28:10.972Z,5.75
2019-03-15T06:30:43.372Z,5.87
2019-03-15T06:33:15.977Z,5.92
2019-03-15T06:35:47.860Z,5.93
2019-03-15T06:38:20.169Z,5.90
2019-03-15T06:40:51.896Z,5.99
2019-03-15T06:43:23.775Z,5.94
2019-03-15T06:45:55.927Z,5.93
2019-03-15T06:48:28.698Z,6.05
2019-03-15T06:51:00.361Z,6.16
2019-03-15T06:53:32.083Z,6.15
2019-03-15T06:56:03.697Z,6.19
2019-03-15T06:58:35.455Z,6.41
2019-03-15T07:01:10.042Z,6.50
2019-03-15T07:03:41.805Z,6.59
2019-03-15T07:06:14.407Z,6.63
2019-03-15T07:08:47.697Z,6.72
2019-03-15T07:11:19.506Z,6.74
2019-03-15T07:13:52.456Z,6.97
2019-03-15T07:16:24.096Z,7.09
2019-03-15T07:18:56.892Z,7.10
2019-03-15T07:21:30.589Z,7.25
2019-03-15T07:24:03.828Z,7.34
2019-03-15T07:26:35.691Z,7.35
2019-03-15T07:29:08.128Z,7.25
2019-03-15T07:31:39.944Z,7.26
2019-03-15T07:34:13.795Z,7.40
2019-03-15T07:36:45.444Z,7.41
2019-03-15T07:39:20.528Z,7.65
2019-03-15T07:41:52.717Z,7.65
2019-03-15T07:44:24.772Z,7.67
2019-03-15T07:46:58.302Z,7.84
2019-03-15T07:49:30.896Z,7.91
2019-03-15T07:52:04.115Z,8.16
2019-03-15T07:54:38.262Z,8.43
2019-03-15T07:57:10.476Z,8.27
2019-03-15T07:59:43.789Z,8.12
2019-03-15T08:02:16.474Z,8.25
2019-03-15T08:04:50.042Z,8.27
2019-03-15T08:07:35.552Z,8.29
2019-03-15T08:09:55.884Z,8.50
2019-03-15T08:12:28.271Z,8.66
2019-03-15T08:15:05.126Z,8.58
2019-03-15T08:17:40.482Z,8.49
2019-03-15T08:20:12.584Z,8.48
2019-03-15T08:22:46.446Z,8.44
2019-03-15T08:25:19.034Z,8.25
2019-03-15T08:27:50.945Z,8.24
2019-03-15T08:30:28.357Z,8.13
2019-03-15T08:33:10.179Z,7.94
2019-03-15T08:35:35.800Z,7.73
2019-03-15T08:38:10.957Z,7.57
2019-03-15T08:40:44.756Z,7.59
2019-03-15T08:43:17.619Z,7.64
2019-03-15T08:45:49.986Z,7.58
2019-03-15T08:48:24.300Z,7.49
2019-03-15T08:50:56.697Z,7.49
2019-03-15T08:53:29.313Z,7.39
2019-03-15T08:56:02.910Z,7.35
2019-03-15T08:58:34.787Z,7.30
2019-03-15T09:01:10.709Z,7.24
2019-03-15T09:03:43.672Z,7.33
2019-03-15T09:06:15.624Z,7.41
2019-03-15T09:08:47.394Z,7.50
2019-03-15T09:11:19.055Z,7.57
2019-03-15T09:13:50.862Z,7.58
2019-03-15T09:16:22.637Z,7.61
2019-03-15T09:18:55.629Z,7.50
2019-03-15T09:21:27.813Z,7.57
2019-03-15T09:23:59.540Z,7.50
2019-03-15T09:26:32.511Z,7.44
2019-03-15T09:29:04.322Z,7.54
2019-03-15T09:31:47.639Z,7.49
2019-03-15T09:34:11.111Z,7.52
2019-03-15T09:36:50.274Z,7.57
2019-03-15T09:39:20.351Z,7.58
2019-03-15T09:41:52.259Z,7.54
2019-03-15T09:44:24.115Z,7.59
2019-03-15T09:46:56.026Z,7.45
2019-03-15T09:49:27.923Z,7.47
2019-03-15T09:51:59.690Z,7.51
2019-03-15T09:54:32.637Z,7.34
2019-03-15T09:57:04.401Z,7.37
2019-03-15T09:59:36.231Z,7.27
2019-03-15T10:02:08.234Z,7.23
2019-03-15T10:04:40.194Z,7.17
2019-03-15T10:07:13.522Z,7.27
2019-03-15T10:09:46.377Z,7.33
2019-03-15T10:12:18.758Z,7.30
2019-03-15T10:14:50.935Z,7.22
2019-03-15T10:17:23.203Z,7.26
2019-03-15T10:19:55.325Z,7.23
2019-03-15T10:22:27.317Z,7.38
2019-03-15T10:24:59.240Z,7.43
2019-03-15T10:27:31.120Z,7.53
2019-03-15T10:30:02.824Z,7.58
2019-03-15T10:32:34.933Z,7.54
2019-03-15T10:35:07.027Z,7.70
2019-03-15T10:37:38.886Z,7.79
2019-03-15T10:40:13.551Z,7.66
2019-03-15T10:42:45.327Z,7.69
2019-03-15T10:45:16.163Z,7.78
2019-03-15T10:47:48.105Z,7.79
2019-03-15T10:50:20.572Z,7.67
2019-03-15T10:52:53.908Z,7.64
2019-03-15T10:55:25.997Z,7.68
2019-03-15T10:57:58.004Z,7.65
2019-03-15T11:00:29.815Z,7.64
2019-03-15T11:03:01.658Z,7.69
2019-03-15T11:05:33.410Z,7.79
2019-03-15T11:08:05.448Z,7.74
2019-03-15T11:10:37.233Z,7.86
2019-03-15T11:13:09.025Z,7.84
2019-03-15T11:15:40.869Z,7.70
2019-03-15T11:18:12.505Z,7.62
2019-03-15T11:20:45.345Z,7.59
2019-03-15T11:23:17.198Z,7.63
2019-03-15T11:25:48.821Z,7.59
2019-03-15T11:28:20.452Z,7.64
2019-03-15T11:30:53.352Z,7.58
2019-03-15T11:33:25.103Z,7.63
2019-03-15T11:35:56.745Z,7.55
2019-03-15T11:38:27.389Z,7.53
2019-03-15T11:40:59.050Z,7.41
2019-03-15T11:43:33.205Z,7.44
2019-03-15T11:46:05.070Z,7.43
2019-03-15T11:48:36.757Z,7.61
2019-03-15T11:51:08.468Z,7.64
2019-03-15T11:53:40.242Z,7.71
2019-03-15T11:56:12.154Z,7.77
2019-03-15T11:58:46.199Z,7.91
2019-03-15T12:01:18.026Z,7.92
2019-03-15T12:03:53.346Z,7.84
2019-03-15T12:06:23.890Z,7.85
2019-03-15T12:08:55.851Z,7.72
2019-03-15T12:11:27.709Z,7.76
2019-03-15T12:13:59.757Z,7.70
2019-03-15T12:16:32.419Z,7.82
2019-03-15T12:19:07.112Z,7.74
2019-03-15T12:21:40.603Z,7.51
2019-03-15T12:24:12.515Z,7.33
2019-03-15T12:26:44.564Z,7.35
2019-03-15T12:29:20.029Z,7.43
2019-03-15T12:31:51.861Z,7.55
2019-03-15T12:34:32.658Z,7.68
2019-03-15T12:37:04.694Z,7.75
2019-03-15T12:39:36.481Z,7.88
2019-03-15T12:42:08.309Z,7.95
2019-03-15T12:44:43.131Z,8.04
2019-03-15T12:47:15.143Z,8.01
2019-03-15T12:49:48.496Z,7.99
2019-03-15T12:52:20.869Z,8.06
2019-03-15T12:54:52.954Z,8.10
2019-03-15T12:57:25.799Z,8.07
2019-03-15T13:00:00.412Z,7.98
2019-03-15T13:02:32.402Z,8.05
2019-03-15T13:05:04.373Z,8.00
2019-03-15T13:07:36.777Z,8.07
2019-03-15T13:10:13.098Z,8.11
2019-03-15T13:12:44.884Z,8.13
2019-03-15T13:15:17.103Z,8.16
2019-03-15T13:17:50.242Z,8.20
2019-03-15T13:20:22.123Z,8.24
2019-03-15T13:22:55.494Z,8.23
2019-03-15T13:25:28.868Z,8.29
2019-03-15T13:28:00.637Z,8.29
2019-03-15T13:30:32.568Z,8.33
2019-03-15T13:33:19.128Z,8.41
2019-03-15T13:35:41.960Z,8.47
2019-03-15T13:38:13.833Z,8.48
2019-03-15T13:40:45.607Z,8.56
2019-03-15T13:43:17.505Z,8.68
2019-03-15T13:45:49.881Z,8.79
2019-03-15T13:48:21.828Z,8.68
2019-03-15T13:50:53.828Z,8.81
2019-03-15T13:53:25.766Z,8.79
2019-03-15T13:58:28.137Z,9.04
2019-03-15T14:01:02.929Z,8.90
2019-03-15T14:03:34.592Z,8.73
2019-03-15T14:06:06.410Z,8.58
2019-03-15T14:08:39.682Z,8.63
2019-03-15T14:11:11.469Z,8.56
2019-03-15T14:13:43.306Z,8.49
2019-03-15T14:16:15.256Z,8.36
2019-03-15T14:18:47.111Z,8.42
2019-03-15T14:21:18.911Z,8.46
2019-03-15T14:23:50.851Z,8.52
2019-03-15T14:26:22.637Z,8.54
2019-03-15T14:28:58.478Z,8.57
2019-03-15T14:31:30.455Z,8.50
2019-03-15T14:34:02.323Z,8.47
2019-03-15T14:36:34.253Z,8.38
2019-03-15T14:39:09.319Z,8.41
2019-03-15T14:41:41.478Z,8.41
2019-03-15T14:44:14.877Z,8.43
2019-03-15T14:46:46.804Z,8.47
2019-03-15T14:49:18.645Z,8.43
2019-03-15T14:51:50.610Z,8.42
2019-03-15T14:54:22.619Z,8.36
2019-03-15T14:56:54.419Z,8.29
2019-03-15T14:59:26.311Z,8.30
2019-03-15T15:01:58.156Z,8.25
2019-03-15T15:04:30.125Z,8.23
2019-03-15T15:07:05.079Z,8.30
2019-03-15T15:09:36.953Z,8.34
2019-03-15T15:12:08.781Z,8.33
2019-03-15T15:14:40.730Z,8.32
2019-03-15T15:17:12.486Z,8.27
2019-03-15T15:19:48.159Z,8.30
2019-03-15T15:22:20.035Z,8.26
2019-03-15T15:24:51.961Z,8.29
2019-03-15T15:27:25.605Z,8.33
2019-03-15T15:29:57.704Z,8.28
2019-03-15T15:32:30.485Z,8.34
2019-03-15T15:35:02.456Z,8.33
2019-03-15T15:37:34.320Z,8.39
2019-03-15T15:40:08.050Z,8.35
2019-03-15T15:42:40.050Z,8.34
2019-03-15T15:45:12.194Z,8.32
2019-03-15T15:47:46.998Z,8.22
2019-03-15T15:50:19.208Z,8.20
2019-03-15T15:52:51.108Z,8.09
2019-03-15T15:55:22.768Z,7.96
2019-03-15T15:57:54.649Z,7.94
2019-03-15T16:00:26.466Z,7.89
2019-03-15T16:02:59.896Z,7.86
2019-03-15T16:05:33.894Z,7.73
2019-03-15T16:08:05.814Z,7.71
2019-03-15T16:10:37.689Z,7.72
2019-03-15T16:13:17.258Z,7.65
2019-03-15T16:15:44.474Z,7.52
2019-03-15T16:18:16.298Z,7.44
2019-03-15T16:20:48.107Z,7.35
2019-03-15T16:23:20.093Z,7.36
2019-03-15T16:25:51.838Z,7.20
2019-03-15T16:28:31.306Z,7.18
2019-03-15T16:30:58.177Z,7.13
2019-03-15T16:33:30.010Z,7.14
2019-03-15T16:36:06.483Z,7.12
2019-03-15T16:38:38.198Z,7.04
2019-03-15T16:41:10.167Z,6.92
2019-03-15T16:43:42.090Z,6.84
2019-03-15T16:46:13.922Z,6.80
2019-03-15T16:48:45.816Z,6.80
2019-03-15T16:51:19.798Z,6.84
2019-03-15T16:53:51.119Z,6.71
2019-03-15T16:56:22.974Z,6.57
2019-03-15T16:58:54.884Z,6.47
2019-03-15T17:01:28.034Z,6.46
2019-03-15T17:03:59.880Z,6.42
2019-03-15T17:06:31.861Z,6.45
2019-03-15T17:09:05.419Z,6.47
2019-03-15T17:11:37.029Z,6.50
2019-03-15T17:14:08.691Z,6.43
2019-03-15T17:16:40.631Z,6.44
2019-03-15T17:19:13.436Z,6.36
2019-03-15T17:21:45.111Z,6.24
2019-03-15T17:24:16.887Z,6.16
2019-03-15T17:26:51.506Z,6.04
2019-03-15T17:29:22.911Z,6.08
2019-03-15T17:31:54.676Z,6.07
2019-03-15T17:34:26.451Z,6.05
2019-03-15T17:37:06.605Z,6.09
2019-03-15T17:39:31.942Z,6.08
2019-03-15T17:42:03.837Z,6.08
2019-03-15T17:44:35.664Z,6.01
2019-03-15T17:47:07.443Z,5.96
2019-03-15T17:49:39.313Z,5.94
2019-03-15T17:52:11.438Z,5.99
2019-03-15T17:54:43.357Z,5.98
2019-03-15T17:57:17.135Z,6.04
2019-03-15T18:00:11.412Z,6.06
2019-03-15T18:02:43.515Z,6.03
2019-03-15T18:05:15.325Z,5.95
2019-03-15T18:07:47.302Z,5.96
2019-03-15T18:10:19.110Z,5.93
2019-03-15T18:12:51.206Z,5.89
2019-03-15T18:15:26.659Z,5.86
2019-03-15T18:18:00.174Z,5.95
2019-03-15T18:20:32.476Z,5.95
2019-03-15T18:23:04.611Z,6.00
2019-03-15T18:25:36.335Z,5.96
2019-03-15T18:28:08.370Z,5.97
2019-03-15T18:30:40.373Z,5.97
2019-03-15T18:33:12.301Z,5.96
2019-03-15T18:35:44.235Z,5.94
2019-03-15T18:38:16.885Z,5.84
2019-03-15T18:40:48.609Z,5.83
2019-03-15T18:43:21.894Z,5.85
2019-03-15T18:45:53.794Z,5.89
2019-03-15T18:48:27.971Z,5.90
2019-03-15T18:51:01.297Z,5.86
2019-03-15T18:53:33.823Z,5.84
2019-03-15T18:56:06.744Z,5.83
2019-03-15T18:58:40.564Z,5.83
2019-03-15T19:01:12.388Z,5.79
2019-03-15T19:03:44.296Z,5.72
2019-03-15T19:06:16.508Z,5.72
2019-03-15T19:08:49.064Z,5.75
2019-03-15T19:11:20.665Z,5.75
2019-03-15T19:13:52.574Z,5.71
2019-03-15T19:16:24.550Z,5.70
2019-03-15T19:18:56.363Z,5.70
2019-03-15T19:21:29.511Z,5.69
2019-03-15T19:24:01.509Z,5.69
2019-03-15T19:26:33.315Z,5.69
2019-03-15T19:29:06.576Z,5.75
2019-03-15T19:31:38.431Z,5.72
2019-03-15T19:34:10.269Z,5.75
2019-03-15T19:36:45.936Z,5.75
2019-03-15T19:39:18.010Z,5.78
2019-03-15T19:41:49.914Z,5.76
2019-03-15T19:44:21.814Z,5.78
2019-03-15T19:46:53.643Z,5.70
2019-03-15T19:49:27.371Z,5.70
2019-03-15T19:51:59.261Z,5.69
2019-03-15T19:54:33.207Z,5.64
2019-03-15T19:57:06.243Z,5.57
2019-03-15T19:59:38.213Z,5.61
2019-03-15T20:02:10.076Z,5.59
2019-03-15T20:04:41.948Z,5.60
2019-03-15T20:07:13.894Z,5.57
2019-03-15T20:09:45.823Z,5.53
2019-03-15T20:12:18.394Z,5.52
2019-03-15T20:14:50.276Z,5.54
2019-03-15T20:17:22.174Z,5.43
2019-03-15T20:19:53.918Z,5.40
2019-03-15T20:22:25.873Z,5.38
2019-03-15T20:24:57.962Z,5.41
2019-03-15T20:27:31.665Z,5.28
2019-03-15T20:30:20.153Z,5.24
2019-03-15T20:32:41.917Z,5.28
2019-03-15T20:35:16.747Z,5.24
2019-03-15T20:37:51.607Z,5.27
2019-03-15T20:40:24.871Z,5.30
2019-03-15T20:42:56.815Z,5.29
2019-03-15T20:45:30.005Z,5.21
2019-03-15T20:48:02.055Z,5.22
2019-03-15T20:50:46.204Z,5.25
2019-03-15T20:53:12.544Z,5.22
2019-03-15T20:55:41.925Z,5.18
2019-03-15T20:58:14.713Z,5.19
2019-03-15T21:00:46.635Z,5.18
2019-03-15T21:03:18.590Z,5.21
2019-03-15T21:05:50.532Z,5.17
2019-03-15T21:08:24.026Z,5.13
2019-03-15T21:10:55.951Z,5.12
2019-03-15T21:13:27.927Z,5.14
2019-03-15T21:15:59.795Z,5.10
2019-03-15T21:18:34.089Z,5.14
2019-03-15T21:21:05.920Z,5.10
2019-03-15T21:23:38.212Z,5.14
2019-03-15T21:26:10.014Z,5.16
2019-03-15T21:28:41.742Z,5.16
2019-03-15T21:31:14.091Z,5.17
2019-03-15T21:33:46.007Z,5.12
2019-03-15T21:36:17.853Z,5.10
2019-03-15T21:38:49.644Z,5.09
2019-03-15T21:41:21.645Z,5.04
2019-03-15T21:43:53.522Z,5.11
2019-03-15T21:46:26.574Z,5.08
2019-03-15T21:48:58.626Z,5.03
2019-03-15T21:51:30.641Z,5.00
2019-03-15T21:54:02.407Z,5.04
2019-03-15T21:56:37.015Z,5.00
2019-03-15T21:59:10.480Z,5.00
2019-03-15T22:01:43.528Z,5.00
2019-03-15T22:04:17.427Z,4.97
2019-03-15T22:06:49.321Z,4.92
2019-03-15T22:09:21.058Z,4.91
2019-03-15T22:11:54.043Z,4.88
2019-03-15T22:14:25.800Z,4.87
2019-03-15T22:17:00.595Z,4.93
2019-03-15T22:19:33.457Z,4.95
2019-03-15T22:22:05.060Z,4.95
2019-03-15T22:24:38.956Z,4.98
2019-03-15T22:27:10.662Z,5.05
2019-03-15T22:29:53.032Z,5.06
2019-03-15T22:32:28.014Z,4.99
2019-03-15T22:35:00.656Z,4.96
2019-03-15T22:37:32.345Z,4.96
2019-03-15T22:40:04.265Z,4.92
2019-03-15T22:42:35.890Z,4.94
2019-03-15T22:45:07.776Z,4.97
2019-03-15T22:47:39.308Z,4.93
2019-03-15T22:50:12.952Z,4.91
2019-03-15T22:52:44.456Z,4.93
2019-03-15T22:55:16.790Z,4.84
2019-03-15T22:57:59.620Z,4.88
2019-03-15T23:00:30.419Z,4.88
2019-03-15T23:03:05.479Z,4.88
2019-03-15T23:05:37.304Z,4.82
2019-03-15T23:08:08.900Z,4.85
2019-03-15T23:10:41.657Z,4.81
2019-03-15T23:13:13.144Z,4.83
2019-03-15T23:15:44.642Z,4.91
2019-03-15T23:18:16.369Z,4.91
2019-03-15T23:20:48.182Z,4.85
2019-03-15T23:23:24.119Z,4.88
2019-03-15T23:25:53.608Z,4.86
2019-03-15T23:28:26.570Z,4.82
2019-03-15T23:30:59.759Z,4.82
2019-03-15T23:33:32.678Z,4.82
2019-03-15T23:36:04.531Z,4.83
2019-03-15T23:38:36.334Z,4.88
2019-03-15T23:41:09.754Z,4.93
2019-03-15T23:43:41.779Z,4.90
2019-03-15T23:46:14.122Z,4.90
2019-03-15T23:48:48.406Z,4.90
2019-03-15T23:51:20.914Z,4.96
2019-03-15T23:53:55.149Z,4.91
2019-03-15T23:56:27.147Z,4.93
2019-03-15T23:58:58.945Z,4.88
